Time;durP1;ratioP1;P1;durP2;ratioP2;P2;SDS_P1;SDS_P2;PMS_P1;PMS_P2;Temp;Humidity;BMP_temperature;BMP_pressure;BME280_temperature;BME280_humidity;BME280_pressure;Samples;Min_cycle;Max_cycle;Signal;HPM_P1;HPM_P2
2023/05/24 00:00:21;;;;;;;21.33;13.27;;;;;;;12.24;100.00;94078.19;5049861;28;20098;-58
2023/05/24 00:02:48;;;;;;;20.80;12.38;;;;;;;12.19;100.00;94069.22;5048202;28;20041;-57
2023/05/24 00:05:15;;;;;;;22.50;13.85;;;;;;;11.98;100.00;94075.88;5047449;28;20065;-59
2023/05/24 00:07:42;;;;;;;20.17;12.70;;;;;;;12.16;100.00;94078.31;5065567;28;20361;-55
2023/05/24 00:10:09;;;;;;;18.98;11.82;;;;;;;12.23;100.00;94074.63;5056261;28;20496;-57
2023/05/24 00:12:36;;;;;;;20.03;12.37;;;;;;;12.18;100.00;94075.91;5030428;28;20045;-54
2023/05/24 00:15:03;;;;;;;21.75;12.90;;;;;;;12.04;100.00;94075.41;5053340;28;20036;-58
2023/05/24 00:17:31;;;;;;;19.52;11.80;;;;;;;12.16;100.00;94072.81;5046733;28;20842;-59
2023/05/24 00:19:58;;;;;;;18.73;12.20;;;;;;;12.16;100.00;94069.28;5059607;28;20040;-56
2023/05/24 00:22:25;;;;;;;17.90;11.73;;;;;;;12.12;100.00;94068.56;5067422;28;20047;-57
2023/05/24 00:24:51;;;;;;;19.40;12.30;;;;;;;12.01;100.00;94067.97;5061412;28;20037;-59
2023/05/24 00:27:18;;;;;;;17.90;11.50;;;;;;;12.11;100.00;94065.06;5050654;28;20040;-52
2023/05/24 00:29:45;;;;;;;20.77;11.98;;;;;;;11.89;100.00;94072.13;5033617;28;20045;-55
2023/05/24 00:32:12;;;;;;;18.75;11.63;;;;;;;11.96;100.00;94066.50;5050671;28;20115;-59
2023/05/24 00:34:39;;;;;;;19.02;11.70;;;;;;;11.99;100.00;94071.16;5051477;28;20324;-56
2023/05/24 00:37:06;;;;;;;19.23;12.10;;;;;;;11.97;100.00;94060.59;5050710;28;20097;-60
2023/05/24 00:39:33;;;;;;;19.02;12.70;;;;;;;11.83;100.00;94062.78;5051213;28;20101;-54
2023/05/24 00:42:01;;;;;;;20.08;12.77;;;;;;;11.83;100.00;94063.56;5051262;28;20372;-53
2023/05/24 00:44:29;;;;;;;20.15;11.65;;;;;;;12.12;100.00;94065.81;5047357;28;20049;-52
2023/05/24 00:46:56;;;;;;;18.75;12.05;;;;;;;12.24;100.00;94059.69;5044946;28;20036;-54
2023/05/24 00:49:23;;;;;;;23.00;14.03;;;;;;;12.26;100.00;94059.28;5046134;28;20055;-59
2023/05/24 00:51:52;;;;;;;19.00;11.77;;;;;;;12.00;100.00;94053.47;5037065;28;20045;-57
2023/05/24 00:54:19;;;;;;;18.67;11.60;;;;;;;12.01;100.00;94049.50;5031153;28;20164;-58
2023/05/24 00:56:47;;;;;;;26.58;11.68;;;;;;;11.99;100.00;94057.41;5057252;28;20489;-58
2023/05/24 00:59:14;;;;;;;17.90;12.02;;;;;;;12.00;100.00;94056.22;5051558;28;20043;-59
2023/05/24 01:01:41;;;;;;;18.33;11.20;;;;;;;12.14;100.00;94057.94;5031770;28;20041;-53
2023/05/24 01:04:08;;;;;;;19.30;11.70;;;;;;;12.12;100.00;94058.34;5042893;28;20045;-55
2023/05/24 01:06:45;;;;;;;18.95;12.05;;;;;;;11.93;100.00;94053.59;5022022;28;20041;-55
2023/05/24 01:09:49;;;;;;;20.77;12.32;;;;;;;11.86;100.00;94053.69;5039600;28;20089;-54
2023/05/24 01:12:35;;;;;;;18.85;10.98;;;;;;;11.94;100.00;94047.66;5050062;28;20036;-54
2023/05/24 01:15:20;;;;;;;15.57;10.23;;;;;;;11.98;100.00;94058.63;5053644;28;20041;-59
2023/05/24 01:18:04;;;;;;;17.23;10.13;;;;;;;12.02;100.00;94055.81;5047529;28;20298;-59
2023/05/24 01:20:33;;;;;;;15.82;10.30;;;;;;;11.97;100.00;94055.09;5066017;28;20415;-55
2023/05/24 01:23:13;;;;;;;15.57;10.20;;;;;;;11.88;100.00;94051.31;5043298;28;20041;-54
2023/05/24 01:25:45;;;;;;;15.43;10.70;;;;;;;11.77;100.00;94045.97;5049521;28;20703;-60
2023/05/24 01:28:13;;;;;;;17.33;10.37;;;;;;;11.68;100.00;94045.75;5044378;28;20063;-57
2023/05/24 01:30:41;;;;;;;15.70;10.15;;;;;;;11.78;100.00;94040.06;5032657;28;20040;-56
2023/05/24 01:33:08;;;;;;;18.33;10.60;;;;;;;11.64;100.00;94039.56;5051645;28;20052;-59
2023/05/24 01:35:39;;;;;;;15.13;10.23;;;;;;;11.64;100.00;94034.81;5062468;28;20041;-57
2023/05/24 01:38:06;;;;;;;16.17;10.10;;;;;;;11.64;100.00;94031.31;5049548;28;20045;-58
2023/05/24 01:40:34;;;;;;;14.23;9.60;;;;;;;11.74;100.00;94041.34;5050729;28;20049;-57
2023/05/24 01:43:03;;;;;;;16.63;9.93;;;;;;;11.72;100.00;94032.72;5030049;28;20045;-56
2023/05/24 01:45:40;;;;;;;15.18;10.30;;;;;;;11.60;100.00;94039.59;5032777;28;20912;-58
2023/05/24 01:48:07;;;;;;;17.30;9.45;;;;;;;11.65;100.00;94033.66;5033740;28;20047;-57
2023/05/24 01:50:37;;;;;;;16.92;10.05;;;;;;;11.65;100.00;94032.84;5047252;28;20041;-58
2023/05/24 01:53:12;;;;;;;14.83;9.43;;;;;;;11.68;100.00;94032.03;5060431;28;20032;-59
2023/05/24 01:55:39;;;;;;;14.98;9.73;;;;;;;11.73;100.00;94029.56;5032979;28;20037;-58
2023/05/24 01:58:08;;;;;;;15.60;9.77;;;;;;;11.79;100.00;94040.84;5041489;28;20043;-54
2023/05/24 02:00:37;;;;;;;13.60;9.30;;;;;;;11.79;100.00;94033.38;5044130;28;20044;-53
2023/05/24 02:03:05;;;;;;;13.82;9.20;;;;;;;11.85;100.00;94033.69;5057136;28;20488;-59
2023/05/24 02:05:32;;;;;;;15.93;9.70;;;;;;;11.79;100.00;94036.13;5049221;28;20045;-54
2023/05/24 02:07:59;;;;;;;14.60;9.18;;;;;;;11.71;100.00;94039.41;5048107;28;20369;-55
2023/05/24 02:10:26;;;;;;;14.40;10.10;;;;;;;11.73;100.00;94035.06;5060284;28;20101;-56
2023/05/24 02:12:53;;;;;;;13.73;9.10;;;;;;;11.91;100.00;94033.97;5051562;28;20048;-58
2023/05/24 02:15:20;;;;;;;13.88;9.20;;;;;;;11.92;100.00;94025.31;5045108;28;20029;-58
2023/05/24 02:17:47;;;;;;;14.33;9.70;;;;;;;11.86;100.00;94029.72;5046369;28;20767;-58
2023/05/24 02:20:16;;;;;;;15.40;9.45;;;;;;;11.95;100.00;94029.97;5038472;28;20041;-57
2023/05/24 02:22:43;;;;;;;15.30;10.00;;;;;;;11.68;100.00;94032.78;5057158;28;20118;-58
2023/05/24 02:25:09;;;;;;;15.23;10.00;;;;;;;11.68;100.00;94035.53;5037708;28;20490;-55
2023/05/24 02:27:36;;;;;;;13.80;9.20;;;;;;;11.80;100.00;94029.41;5057204;28;20402;-56
2023/05/24 02:30:04;;;;;;;13.80;9.20;;;;;;;11.76;100.00;94036.97;5049320;28;20045;-56
2023/05/24 02:32:31;;;;;;;13.60;9.18;;;;;;;11.64;100.00;94034.81;5046876;28;20596;-56
2023/05/24 02:35:00;;;;;;;14.10;9.40;;;;;;;11.52;100.00;94030.69;5059697;28;20514;-57
2023/05/24 02:37:27;;;;;;;15.07;9.10;;;;;;;11.53;100.00;94024.03;5036190;28;20048;-55
2023/05/24 02:39:54;;;;;;;13.82;9.48;;;;;;;11.37;100.00;94026.66;5035366;28;20464;-58
2023/05/24 02:42:20;;;;;;;17.50;9.63;;;;;;;11.30;100.00;94030.28;5056934;28;20041;-54
2023/05/24 02:44:48;;;;;;;13.70;9.23;;;;;;;11.39;100.00;94022.28;5048597;28;20033;-53
2023/05/24 02:47:15;;;;;;;14.30;9.65;;;;;;;11.31;100.00;94014.59;5037283;28;20087;-57
2023/05/24 02:49:41;;;;;;;14.68;10.10;;;;;;;11.34;100.00;94021.97;5048406;28;20037;-58
2023/05/24 02:52:08;;;;;;;14.20;9.60;;;;;;;11.26;100.00;94024.06;5030386;28;20039;-58
2023/05/24 02:54:35;;;;;;;15.10;11.00;;;;;;;10.94;100.00;94019.06;5048610;28;20513;-57
2023/05/24 02:57:02;;;;;;;14.95;9.82;;;;;;;10.97;100.00;94019.03;5048836;28;20045;-54
2023/05/24 02:59:30;;;;;;;16.17;10.30;;;;;;;11.12;100.00;94016.81;5047973;28;21446;-55
2023/05/24 03:01:56;;;;;;;14.77;9.98;;;;;;;10.93;100.00;94012.81;5053607;28;20039;-56
2023/05/24 03:04:23;;;;;;;14.77;10.10;;;;;;;11.22;100.00;94009.63;5046919;28;20202;-60
2023/05/24 03:06:52;;;;;;;16.37;10.47;;;;;;;11.11;100.00;94009.03;5028553;28;20508;-57
2023/05/24 03:09:19;;;;;;;16.73;11.20;;;;;;;10.96;100.00;94019.44;5055332;28;20041;-57
2023/05/24 03:11:45;;;;;;;17.45;10.88;;;;;;;10.95;100.00;94015.91;5054861;28;20036;-59
2023/05/24 03:14:12;;;;;;;15.25;9.98;;;;;;;10.74;100.00;94014.25;5054370;28;20033;-54
2023/05/24 03:16:39;;;;;;;15.88;10.20;;;;;;;10.82;100.00;94014.16;5042780;28;20064;-55
2023/05/24 03:19:06;;;;;;;17.03;10.93;;;;;;;10.76;100.00;94017.34;5027826;28;20138;-60
2023/05/24 03:21:35;;;;;;;15.95;10.07;;;;;;;10.97;100.00;94010.03;5023687;28;20392;-54
2023/05/24 03:24:02;;;;;;;15.43;10.25;;;;;;;10.91;100.00;94009.72;5057669;28;20124;-57
2023/05/24 03:26:29;;;;;;;17.20;10.95;;;;;;;10.88;100.00;94013.28;5050912;28;20375;-60
2023/05/24 03:28:56;;;;;;;16.50;11.05;;;;;;;10.91;100.00;94015.19;5053880;28;20680;-59
2023/05/24 03:31:25;;;;;;;17.27;10.60;;;;;;;10.95;100.00;94013.19;5035965;28;20385;-55
2023/05/24 03:33:52;;;;;;;16.88;10.50;;;;;;;10.97;100.00;94012.75;5049722;28;20473;-56
2023/05/24 03:36:20;;;;;;;15.45;9.70;;;;;;;11.12;100.00;94025.06;5046347;28;20045;-55
2023/05/24 03:38:46;;;;;;;14.90;9.50;;;;;;;11.13;100.00;94015.66;5048664;28;20044;-55
2023/05/24 03:41:13;;;;;;;15.07;9.40;;;;;;;11.02;100.00;94011.50;5055106;28;20150;-59
2023/05/24 03:43:40;;;;;;;14.20;9.47;;;;;;;10.97;100.00;94024.53;5041627;28;20078;-57
2023/05/24 03:46:06;;;;;;;15.30;9.93;;;;;;;10.94;100.00;94022.59;5045708;28;20055;-55
2023/05/24 03:48:33;;;;;;;15.02;10.48;;;;;;;10.92;100.00;94018.72;5054181;28;20033;-57
2023/05/24 03:51:00;;;;;;;14.13;9.60;;;;;;;11.01;100.00;94024.47;5030419;28;20111;-54
2023/05/24 03:53:27;;;;;;;14.07;9.43;;;;;;;10.94;100.00;94033.56;5024282;28;20038;-56
2023/05/24 03:55:54;;;;;;;15.20;9.13;;;;;;;11.01;100.00;94024.47;5033858;28;20029;-58
2023/05/24 03:58:21;;;;;;;13.43;9.10;;;;;;;11.10;100.00;94032.19;5049235;28;20043;-57
2023/05/24 04:00:48;;;;;;;14.85;9.70;;;;;;;11.14;100.00;94030.91;5067134;28;20040;-56
2023/05/24 04:03:14;;;;;;;14.50;9.10;;;;;;;11.02;100.00;94033.47;5051295;28;20047;-55
2023/05/24 04:05:41;;;;;;;14.30;9.30;;;;;;;11.09;100.00;94025.16;5051657;28;20191;-53
2023/05/24 04:08:08;;;;;;;13.80;9.27;;;;;;;11.05;100.00;94027.94;5055714;28;20153;-58
2023/05/24 04:10:34;;;;;;;14.15;9.00;;;;;;;11.08;100.00;94035.34;5059887;28;20040;-57
2023/05/24 04:13:01;;;;;;;13.30;8.95;;;;;;;10.94;100.00;94041.03;5052589;28;20040;-59
2023/05/24 04:15:28;;;;;;;14.45;9.38;;;;;;;10.98;100.00;94033.53;5061215;28;20044;-58
2023/05/24 04:17:55;;;;;;;13.52;8.93;;;;;;;11.02;100.00;94031.50;5031752;28;20436;-55
2023/05/24 04:20:26;;;;;;;14.50;9.07;;;;;;;10.79;100.00;94041.25;5033611;28;20175;-55
2023/05/24 04:22:54;;;;;;;12.63;8.52;;;;;;;10.87;100.00;94038.41;5059515;28;20067;-58
2023/05/24 04:25:21;;;;;;;14.40;8.80;;;;;;;10.75;100.00;94043.28;5039099;28;20037;-55
2023/05/24 04:27:49;;;;;;;13.98;8.80;;;;;;;10.91;100.00;94042.66;5024900;28;20071;-54
2023/05/24 04:30:16;;;;;;;14.00;8.88;;;;;;;10.92;100.00;94038.69;5044264;28;20738;-57
2023/05/24 04:32:46;;;;;;;12.37;8.33;;;;;;;10.82;100.00;94036.91;5037019;28;20067;-58
2023/05/24 04:35:13;;;;;;;14.25;8.82;;;;;;;10.70;100.00;94037.47;5050743;28;20678;-57
2023/05/24 04:37:39;;;;;;;17.50;8.73;;;;;;;10.77;100.00;94043.63;5051195;28;20075;-57
2023/05/24 04:40:07;;;;;;;15.18;9.50;;;;;;;10.81;100.00;94040.84;5063768;28;20052;-57
2023/05/24 04:42:35;;;;;;;13.15;9.00;;;;;;;10.67;100.00;94043.78;5050771;28;20044;-57
2023/05/24 04:45:02;;;;;;;14.40;8.17;;;;;;;10.84;100.00;94048.25;5036825;28;20045;-60
2023/05/24 04:47:28;;;;;;;16.27;10.13;;;;;;;10.26;100.00;94045.44;5061841;28;20043;-54
2023/05/24 04:49:55;;;;;;;13.90;9.27;;;;;;;10.58;100.00;94052.50;5044121;28;20045;-57
2023/05/24 04:52:22;;;;;;;14.70;9.48;;;;;;;10.67;100.00;94049.28;5030700;28;20181;-59
2023/05/24 04:54:49;;;;;;;14.90;9.00;;;;;;;10.72;100.00;94055.06;5061073;28;20048;-57
2023/05/24 04:57:16;;;;;;;12.90;8.40;;;;;;;10.53;100.00;94056.50;5051975;28;20189;-57
2023/05/24 04:59:43;;;;;;;15.10;8.50;;;;;;;10.67;100.00;94049.28;5033019;28;20131;-60
2023/05/24 05:02:10;;;;;;;14.63;8.70;;;;;;;10.67;100.00;94058.28;5042483;28;20090;-55
2023/05/24 05:04:37;;;;;;;12.20;8.02;;;;;;;10.79;100.00;94054.97;5047108;28;20107;-57
2023/05/24 05:07:04;;;;;;;16.30;8.90;;;;;;;10.66;100.00;94059.47;5043162;28;20033;-59
2023/05/24 05:09:30;;;;;;;13.57;8.40;;;;;;;10.79;100.00;94056.94;5028361;28;20302;-56
2023/05/24 05:11:57;;;;;;;13.20;8.90;;;;;;;10.52;100.00;94049.47;5030655;28;20033;-60
2023/05/24 05:14:24;;;;;;;13.38;8.40;;;;;;;10.59;100.00;94045.84;5039085;28;20048;-58
2023/05/24 05:16:51;;;;;;;12.18;7.50;;;;;;;10.94;100.00;94043.78;5045290;28;20041;-54
2023/05/24 05:19:18;;;;;;;12.85;8.40;;;;;;;11.03;100.00;94041.31;5061381;28;20039;-57
2023/05/24 05:21:44;;;;;;;13.37;7.93;;;;;;;11.04;100.00;94048.34;5022740;28;20041;-57
2023/05/24 05:24:11;;;;;;;12.18;7.78;;;;;;;11.02;100.00;94058.19;5032121;28;20037;-55
2023/05/24 05:26:38;;;;;;;13.63;9.00;;;;;;;10.61;100.00;94048.19;5028901;28;20706;-59
2023/05/24 05:29:04;;;;;;;13.10;8.13;;;;;;;10.77;100.00;94040.13;5043560;28;20037;-55
2023/05/24 05:31:31;;;;;;;12.90;8.15;;;;;;;11.07;100.00;94041.25;5038701;28;20411;-55
2023/05/24 05:33:58;;;;;;;12.63;8.00;;;;;;;11.25;100.00;94044.50;5041522;28;20041;-60
2023/05/24 05:36:25;;;;;;;14.88;8.55;;;;;;;11.17;100.00;94040.31;5034188;28;20037;-56
2023/05/24 05:38:53;;;;;;;12.98;8.55;;;;;;;11.39;100.00;94027.78;5038208;28;20055;-55
2023/05/24 05:41:20;;;;;;;13.23;8.00;;;;;;;11.34;100.00;94030.22;5029529;28;20051;-58
2023/05/24 05:43:47;;;;;;;12.75;7.47;;;;;;;11.37;100.00;94027.44;5040398;28;20033;-57
2023/05/24 05:46:14;;;;;;;13.37;7.83;;;;;;;11.49;100.00;94039.00;5034798;28;20029;-55
2023/05/24 05:48:41;;;;;;;11.25;7.95;;;;;;;11.66;100.00;94032.44;5044963;28;20053;-55
2023/05/24 05:51:12;;;;;;;13.05;7.97;;;;;;;11.82;100.00;94039.25;5042282;28;20034;-54
2023/05/24 05:53:39;;;;;;;12.40;7.43;;;;;;;11.90;100.00;94037.94;5029851;28;20044;-54
2023/05/24 05:56:06;;;;;;;14.13;8.20;;;;;;;11.79;100.00;94038.09;5044141;28;20148;-58
2023/05/24 05:58:32;;;;;;;12.77;7.23;;;;;;;11.66;100.00;94034.41;5033779;28;20053;-59
2023/05/24 06:00:59;;;;;;;13.50;7.65;;;;;;;11.49;100.00;94041.75;5042178;28;20046;-58
2023/05/24 06:03:26;;;;;;;14.73;7.40;;;;;;;11.52;100.00;94046.44;5056478;28;20036;-57
2023/05/24 06:05:53;;;;;;;13.70;7.78;;;;;;;11.81;100.00;94052.19;5053080;28;20051;-55
2023/05/24 06:08:20;;;;;;;13.30;7.32;;;;;;;11.81;100.00;94046.69;5055305;28;20116;-57
2023/05/24 06:10:47;;;;;;;11.67;7.27;;;;;;;11.64;100.00;94053.28;5057072;28;20111;-57
2023/05/24 06:13:16;;;;;;;11.27;6.75;;;;;;;11.74;100.00;94049.59;5057763;28;20094;-57
2023/05/24 06:15:43;;;;;;;12.43;7.53;;;;;;;11.77;100.00;94051.47;5031445;28;20051;-63
2023/05/24 06:18:09;;;;;;;12.43;6.95;;;;;;;11.86;100.00;94051.72;5057234;28;20064;-58
2023/05/24 06:20:36;;;;;;;11.30;6.85;;;;;;;11.93;100.00;94048.09;5051788;28;20032;-58
2023/05/24 06:23:03;;;;;;;15.27;7.23;;;;;;;12.03;100.00;94052.59;5051187;28;20033;-59
2023/05/24 06:25:31;;;;;;;12.50;7.30;;;;;;;11.71;100.00;94053.16;5044780;28;21555;-60
2023/05/24 06:27:58;;;;;;;13.13;7.45;;;;;;;12.11;100.00;94050.50;5036833;28;20051;-59
2023/05/24 06:30:25;;;;;;;13.57;7.68;;;;;;;11.86;100.00;94056.44;5046842;28;20055;-61
2023/05/24 06:32:52;;;;;;;14.25;7.57;;;;;;;11.93;100.00;94057.13;5040462;28;20038;-63
2023/05/24 06:35:19;;;;;;;11.03;6.43;;;;;;;12.17;100.00;94057.88;5047241;28;20041;-60
2023/05/24 06:37:45;;;;;;;12.25;7.65;;;;;;;12.62;100.00;94053.81;5036685;28;20059;-62
2023/05/24 06:40:12;;;;;;;10.45;6.90;;;;;;;12.57;100.00;94060.59;5032297;28;20047;-59
2023/05/24 06:42:39;;;;;;;12.82;7.00;;;;;;;12.59;100.00;94052.69;5042592;28;20505;-59
2023/05/24 06:45:07;;;;;;;13.40;7.00;;;;;;;12.36;100.00;94058.28;5053727;28;20201;-63
2023/05/24 06:47:34;;;;;;;13.37;7.20;;;;;;;12.69;100.00;94059.16;5055869;28;20041;-60
2023/05/24 06:50:03;;;;;;;11.93;7.20;;;;;;;12.92;100.00;94063.03;5044904;28;20037;-60
2023/05/24 06:52:30;;;;;;;13.02;7.20;;;;;;;12.90;100.00;94063.47;5030904;28;20037;-60
2023/05/24 06:54:56;;;;;;;11.95;7.35;;;;;;;13.00;100.00;94064.44;5028851;28;20510;-61
2023/05/24 06:57:24;;;;;;;11.45;7.25;;;;;;;12.79;100.00;94063.66;5042661;28;20470;-59
2023/05/24 06:59:50;;;;;;;11.83;7.40;;;;;;;12.73;100.00;94061.84;5025173;28;20045;-62
2023/05/24 07:02:17;;;;;;;13.85;7.88;;;;;;;12.96;100.00;94061.75;5048044;28;20133;-61
2023/05/24 07:04:44;;;;;;;11.40;6.93;;;;;;;13.18;100.00;94064.03;5022619;28;20159;-59
2023/05/24 07:07:13;;;;;;;11.32;6.93;;;;;;;13.28;100.00;94064.97;5043162;28;20040;-59
2023/05/24 07:09:41;;;;;;;13.07;7.60;;;;;;;12.96;100.00;94074.75;5028568;28;20032;-61
2023/05/24 07:12:07;;;;;;;14.13;7.67;;;;;;;12.62;100.00;94075.84;5054065;28;20485;-59
2023/05/24 07:14:35;;;;;;;11.70;7.15;;;;;;;12.68;100.00;94074.16;5044290;28;20045;-61
2023/05/24 07:17:01;;;;;;;14.30;7.28;;;;;;;12.58;100.00;94081.44;5046431;28;20056;-59
2023/05/24 07:19:28;;;;;;;14.13;7.00;;;;;;;13.12;100.00;94085.81;5027880;28;20235;-58
2023/05/24 07:21:55;;;;;;;10.82;6.55;;;;;;;13.44;100.00;94086.28;5041499;28;20067;-62
2023/05/24 07:24:23;;;;;;;13.10;7.00;;;;;;;13.46;100.00;94084.66;5027976;28;20038;-62
2023/05/24 07:26:52;;;;;;;12.48;6.78;;;;;;;13.42;100.00;94083.97;5043407;28;20034;-64
2023/05/24 07:29:20;;;;;;;11.75;6.70;;;;;;;13.25;100.00;94087.88;5027995;28;20141;-63
2023/05/24 07:31:47;;;;;;;14.02;6.70;;;;;;;13.25;100.00;94091.41;5028428;28;20402;-60
2023/05/24 07:34:15;;;;;;;11.55;6.47;;;;;;;13.42;100.00;94094.22;5041113;28;20105;-61
2023/05/24 07:36:41;;;;;;;12.67;6.73;;;;;;;13.51;100.00;94088.88;5052369;28;20033;-61
2023/05/24 07:39:09;;;;;;;14.30;7.28;;;;;;;13.58;100.00;94094.22;5051681;28;20063;-49
2023/05/24 07:41:36;;;;;;;15.88;7.88;;;;;;;13.61;100.00;94100.88;5037774;28;20037;-49
2023/05/24 07:44:02;;;;;;;14.35;6.88;;;;;;;13.56;100.00;94093.88;4993104;28;20387;-56
2023/05/24 07:46:29;;;;;;;12.80;6.95;;;;;;;13.62;100.00;94094.13;4995602;28;20949;-52
2023/05/24 07:48:56;;;;;;;11.27;6.70;;;;;;;13.28;100.00;94096.06;5011771;28;20033;-52
2023/05/24 07:51:23;;;;;;;13.50;6.90;;;;;;;13.16;100.00;94089.25;5000486;28;20046;-58
2023/05/24 07:53:50;;;;;;;12.45;7.10;;;;;;;13.12;100.00;94098.78;4992453;28;20042;-49
2023/05/24 07:56:17;;;;;;;11.32;6.65;;;;;;;13.04;100.00;94100.16;5002803;28;20042;-49
2023/05/24 07:58:45;;;;;;;12.07;6.82;;;;;;;13.09;100.00;94100.41;4998887;28;20582;-56
2023/05/24 08:01:13;;;;;;;11.33;6.43;;;;;;;13.60;100.00;94097.31;4999816;28;20072;-54
2023/05/24 08:03:39;;;;;;;12.25;6.93;;;;;;;13.03;100.00;94101.34;5011235;28;20037;-52
2023/05/24 08:06:07;;;;;;;12.20;6.70;;;;;;;13.53;100.00;94098.28;4999244;28;20533;-56
2023/05/24 08:08:34;;;;;;;11.35;6.80;;;;;;;13.46;100.00;94101.22;4992560;28;20042;-52
2023/05/24 08:11:01;;;;;;;10.57;6.47;;;;;;;12.88;100.00;94111.91;4992558;28;20156;-52
2023/05/24 08:13:27;;;;;;;12.87;7.53;;;;;;;12.39;100.00;94110.50;5008350;28;20125;-49
2023/05/24 08:15:54;;;;;;;15.05;7.60;;;;;;;12.28;100.00;94103.66;4998463;28;20355;-59
2023/05/24 08:18:21;;;;;;;12.95;7.22;;;;;;;12.95;100.00;94090.47;4991767;28;20046;-53
2023/05/24 08:20:48;;;;;;;13.65;7.22;;;;;;;13.35;100.00;94098.69;4992110;28;20399;-55
2023/05/24 08:23:15;;;;;;;14.10;7.32;;;;;;;13.91;100.00;94095.00;4998617;28;20041;-52
2023/05/24 08:25:41;;;;;;;12.77;7.07;;;;;;;14.06;100.00;94105.66;5011411;28;20491;-50
2023/05/24 08:28:09;;;;;;;10.82;6.82;;;;;;;14.33;100.00;94105.38;4991653;28;20034;-50
2023/05/24 08:30:37;;;;;;;11.93;6.72;;;;;;;14.71;100.00;94096.47;5005854;28;20099;-53
2023/05/24 08:33:03;;;;;;;12.35;7.10;;;;;;;14.58;100.00;94107.47;5003750;28;20300;-53
2023/05/24 08:35:30;;;;;;;11.43;7.20;;;;;;;13.84;100.00;94105.41;5005152;28;20831;-53
2023/05/24 08:37:57;;;;;;;12.33;7.47;;;;;;;14.03;100.00;94110.06;5011663;28;20052;-50
2023/05/24 08:40:23;;;;;;;15.73;7.30;;;;;;;14.58;100.00;94107.47;4996391;28;20390;-49
2023/05/24 08:42:51;;;;;;;12.45;7.50;;;;;;;14.61;100.00;94103.84;5012163;28;20500;-51
2023/05/24 08:45:20;;;;;;;9.73;6.45;;;;;;;14.34;100.00;94096.63;5030242;28;20044;-52
2023/05/24 08:47:49;;;;;;;10.88;7.25;;;;;;;14.11;100.00;94113.44;5050542;28;20057;-49
2023/05/24 08:50:17;;;;;;;11.67;7.30;;;;;;;13.61;100.00;94107.16;5031087;28;20045;-49
2023/05/24 08:52:45;;;;;;;12.63;7.10;;;;;;;14.25;100.00;94106.75;5051301;28;20055;-51
2023/05/24 08:55:12;;;;;;;12.38;6.85;;;;;;;14.24;100.00;94096.91;5052595;28;20137;-57
2023/05/24 08:57:40;;;;;;;10.80;7.03;;;;;;;14.22;100.00;94097.34;5050964;28;20079;-53
2023/05/24 09:00:10;;;;;;;14.30;7.90;;;;;;;13.62;100.00;94096.91;5045187;28;20041;-51
2023/05/24 09:02:38;;;;;;;12.47;7.70;;;;;;;14.16;100.00;94096.31;5039890;28;20055;-58
2023/05/24 09:05:09;;;;;;;13.23;7.55;;;;;;;14.09;100.00;94099.28;5048519;28;20064;-56
2023/05/24 09:07:36;;;;;;;11.65;6.72;;;;;;;14.15;100.00;94095.56;5050711;28;20132;-58
2023/05/24 09:10:05;;;;;;;10.88;7.22;;;;;;;14.28;100.00;94095.59;5050260;28;20040;-59
2023/05/24 09:12:33;;;;;;;15.65;6.43;;;;;;;14.93;100.00;94096.59;5042515;28;20728;-59
2023/05/24 09:15:06;;;;;;;11.67;7.50;;;;;;;14.35;100.00;94102.94;5053660;28;20412;-59
2023/05/24 09:17:37;;;;;;;12.05;6.88;;;;;;;14.70;100.00;94103.19;5033954;28;20863;-59
2023/05/24 09:20:08;;;;;;;13.90;7.22;;;;;;;15.01;100.00;94109.03;5050057;28;20068;-61
2023/05/24 09:22:37;;;;;;;12.95;7.30;;;;;;;14.88;99.65;94108.22;5030490;28;20040;-59
2023/05/24 09:25:08;;;;;;;13.65;7.85;;;;;;;14.71;99.06;94097.25;5058150;28;20063;-59
2023/05/24 09:27:36;;;;;;;12.33;7.30;;;;;;;14.79;100.00;94108.88;5049115;28;20051;-58
2023/05/24 09:30:07;;;;;;;13.18;7.28;;;;;;;15.00;99.50;94112.22;5061003;28;20047;-58
2023/05/24 09:32:34;;;;;;;11.77;6.82;;;;;;;15.04;98.75;94112.91;5039455;28;20701;-63
2023/05/24 09:35:01;;;;;;;13.13;7.15;;;;;;;14.73;99.40;94118.91;5059780;28;20067;-60
2023/05/24 09:37:28;;;;;;;12.32;7.53;;;;;;;14.68;100.00;94113.91;5054233;28;20041;-59
2023/05/24 09:39:58;;;;;;;12.00;7.23;;;;;;;14.78;99.35;94112.84;5046655;28;20389;-64
2023/05/24 09:42:27;;;;;;;11.98;7.15;;;;;;;14.36;100.00;94119.06;5048950;28;20097;-60
2023/05/24 09:45:01;;;;;;;13.00;7.55;;;;;;;14.30;100.00;94114.50;5035088;28;20068;-65
2023/05/24 09:47:29;;;;;;;14.90;8.18;;;;;;;13.50;100.00;94123.97;5044749;28;20059;-64
2023/05/24 09:49:56;;;;;;;14.43;8.65;;;;;;;12.81;100.00;94128.56;5054950;28;20040;-60
2023/05/24 09:52:23;;;;;;;15.30;7.87;;;;;;;12.90;100.00;94126.81;5049506;28;20041;-61
2023/05/24 09:54:50;;;;;;;13.60;8.25;;;;;;;12.61;100.00;94125.81;5037310;28;20055;-66
2023/05/24 09:57:17;;;;;;;14.70;8.18;;;;;;;12.77;100.00;94129.41;5016429;28;20045;-62
2023/05/24 09:59:45;;;;;;;14.00;7.53;;;;;;;12.92;100.00;94123.63;5042578;28;20059;-60
2023/05/24 10:02:12;;;;;;;13.95;7.30;;;;;;;13.30;100.00;94120.47;5037735;28;20465;-58
2023/05/24 10:04:39;;;;;;;15.80;7.47;;;;;;;13.33;100.00;94130.66;5048372;28;20543;-60
2023/05/24 10:07:06;;;;;;;13.45;7.60;;;;;;;13.37;100.00;94132.09;5046637;28;20106;-65
2023/05/24 10:09:35;;;;;;;13.35;7.43;;;;;;;13.43;100.00;94137.13;5034261;28;20471;-62
2023/05/24 10:12:06;;;;;;;14.70;7.18;;;;;;;13.66;100.00;94136.19;5041508;28;20048;-66
2023/05/24 10:14:35;;;;;;;15.13;7.40;;;;;;;13.77;100.00;94139.47;5041317;28;20841;-62
2023/05/24 10:17:04;;;;;;;15.47;7.83;;;;;;;13.68;100.00;94144.81;5041583;28;20105;-56
2023/05/24 10:19:36;;;;;;;14.57;7.15;;;;;;;13.83;100.00;94140.50;5042788;28;20844;-58
2023/05/24 10:22:06;;;;;;;23.08;7.80;;;;;;;13.36;100.00;94138.84;5043404;28;20045;-59
2023/05/24 10:24:39;;;;;;;17.25;7.60;;;;;;;13.31;100.00;94136.56;5043233;28;20950;-58
2023/05/24 10:27:13;;;;;;;14.02;7.60;;;;;;;13.84;98.69;94136.53;5026918;28;20109;-60
2023/05/24 10:29:58;;;;;;;15.63;8.00;;;;;;;13.31;100.00;94133.81;5040303;28;20044;-61
2023/05/24 10:32:30;;;;;;;12.35;7.50;;;;;;;13.98;97.21;94138.16;5049195;28;20059;-60
2023/05/24 10:34:58;;;;;;;14.80;7.60;;;;;;;13.53;100.00;94139.63;5035118;28;20409;-64
2023/05/24 10:37:25;;;;;;;14.13;7.78;;;;;;;13.25;100.00;94137.50;5013451;28;20036;-63
2023/05/24 10:39:52;;;;;;;14.00;7.50;;;;;;;13.45;100.00;94134.72;5014984;28;20057;-60
2023/05/24 10:42:20;;;;;;;12.90;7.10;;;;;;;13.37;100.00;94128.59;5010344;28;20060;-60
2023/05/24 10:44:46;;;;;;;15.32;7.68;;;;;;;13.68;97.55;94131.03;5016364;28;20048;-63
2023/05/24 10:47:15;;;;;;;14.48;7.60;;;;;;;13.70;98.84;94139.63;5020046;28;20056;-56
2023/05/24 10:49:51;;;;;;;15.13;8.32;;;;;;;12.90;100.00;94143.34;4991722;28;20064;-56
2023/05/24 10:52:18;;;;;;;13.82;7.15;;;;;;;14.12;97.82;94142.56;5010768;28;20051;-61
2023/05/24 10:55:07;;;;;;;14.10;8.03;;;;;;;13.70;98.77;94136.88;5013684;28;20733;-57
2023/05/24 10:57:38;;;;;;;15.82;7.95;;;;;;;13.73;98.00;94142.31;5021177;28;20828;-57
2023/05/24 11:00:21;;;;;;;11.65;7.10;;;;;;;14.05;95.41;94142.75;5012919;28;20060;-59
2023/05/24 11:03:00;;;;;;;16.40;7.43;;;;;;;14.65;93.11;94142.38;5014764;28;20045;-57
2023/05/24 11:05:45;;;;;;;13.35;7.15;;;;;;;14.04;94.42;94146.72;5007731;28;20418;-64
2023/05/24 11:08:12;;;;;;;15.63;7.30;;;;;;;14.41;93.67;94141.81;5022786;28;20056;-64
2023/05/24 11:10:40;;;;;;;15.20;7.50;;;;;;;13.66;97.55;94147.22;5002798;28;20049;-63
2023/05/24 11:13:09;;;;;;;13.13;7.07;;;;;;;14.22;92.63;94149.78;5009399;28;20053;-60
2023/05/24 11:15:37;;;;;;;13.23;7.43;;;;;;;14.34;91.87;94145.56;5009113;28;20576;-64
2023/05/24 11:18:12;;;;;;;14.43;7.90;;;;;;;14.12;93.50;94137.81;5004660;28;20052;-58
2023/05/24 11:20:46;;;;;;;13.30;7.30;;;;;;;14.99;88.78;94147.38;5004945;28;20601;-68